createdAt,value
2023-03-22T00:00:30.365Z,53.10
2023-03-22T00:03:17.939Z,52.37
2023-03-22T00:05:46.099Z,55.93
2023-03-22T00:08:13.926Z,52.13
2023-03-22T00:10:42.212Z,53.57
2023-03-22T00:13:11.610Z,52.80
2023-03-22T00:15:39.565Z,54.73
2023-03-22T00:18:07.140Z,53.63
2023-03-22T00:20:37.695Z,50.87
2023-03-22T00:23:05.790Z,54.77
2023-03-22T00:25:33.271Z,53.70
2023-03-22T00:28:00.486Z,55.83
2023-03-22T00:30:28.116Z,57.00
2023-03-22T00:32:55.353Z,56.40
2023-03-22T00:35:22.869Z,56.50
2023-03-22T00:37:51.717Z,55.90
2023-03-22T00:40:19.487Z,55.97
2023-03-22T00:42:46.856Z,56.63
2023-03-22T00:45:14.476Z,52.87
2023-03-22T00:47:41.947Z,57.07
2023-03-22T00:50:10.011Z,56.57
2023-03-22T00:52:37.306Z,58.70
2023-03-22T00:55:05.535Z,57.53
2023-03-22T00:57:33.558Z,59.60
2023-03-22T01:00:08.215Z,57.43
2023-03-22T01:02:35.547Z,56.30
2023-03-22T01:05:03.453Z,57.20
2023-03-22T01:07:31.072Z,56.47
2023-03-22T01:09:58.663Z,57.70
2023-03-22T01:12:25.989Z,56.07
2023-03-22T01:14:53.432Z,56.50
2023-03-22T01:17:20.850Z,55.93
2023-03-22T01:19:48.452Z,54.53
2023-03-22T01:22:15.844Z,55.83
2023-03-22T01:24:43.649Z,57.17
2023-03-22T01:27:11.568Z,59.00
2023-03-22T01:29:39.035Z,57.23
2023-03-22T01:32:06.570Z,58.63
2023-03-22T01:34:34.127Z,56.73
2023-03-22T01:37:02.891Z,56.47
2023-03-22T01:39:32.240Z,59.07
2023-03-22T01:42:03.756Z,59.13
2023-03-22T01:44:31.818Z,62.37
2023-03-22T01:47:01.382Z,58.57
2023-03-22T01:49:35.891Z,60.60
2023-03-22T01:52:11.798Z,60.67
2023-03-22T01:54:53.487Z,59.80
2023-03-22T01:57:33.581Z,59.60
2023-03-22T02:00:04.128Z,63.00
2023-03-22T02:03:11.349Z,60.97
2023-03-22T02:05:44.850Z,63.60
2023-03-22T02:08:15.144Z,64.43
2023-03-22T02:11:03.278Z,58.97
2023-03-22T02:13:53.840Z,60.50
2023-03-22T02:17:09.196Z,59.73
2023-03-22T02:20:13.907Z,60.73
2023-03-22T02:22:41.848Z,59.70
2023-03-22T02:25:30.417Z,61.47
2023-03-22T02:28:23.921Z,60.70
2023-03-22T02:31:19.971Z,58.37
2023-03-22T02:34:15.676Z,61.50
2023-03-22T02:37:18.010Z,60.23
2023-03-22T02:39:54.113Z,62.43
2023-03-22T02:42:40.307Z,56.67
2023-03-22T02:45:16.259Z,58.23
2023-03-22T02:48:12.999Z,57.57
2023-03-22T02:50:56.770Z,61.50
2023-03-22T02:53:42.994Z,59.93
2023-03-22T02:56:26.206Z,59.63
2023-03-22T02:59:04.515Z,56.53
2023-03-22T03:01:43.927Z,57.30
2023-03-22T03:04:19.836Z,58.30
2023-03-22T03:06:51.969Z,58.77
2023-03-22T03:09:20.670Z,58.63
2023-03-22T03:11:51.354Z,60.27
2023-03-22T03:14:23.202Z,61.30
2023-03-22T03:17:02.943Z,59.90
2023-03-22T03:20:12.251Z,58.17
2023-03-22T03:23:28.806Z,59.03
2023-03-22T03:26:36.995Z,60.17
2023-03-22T03:29:17.236Z,61.03
2023-03-22T03:32:17.479Z,59.53
2023-03-22T03:34:49.664Z,59.20
2023-03-22T03:37:24.816Z,60.73
2023-03-22T03:40:09.092Z,59.93
2023-03-22T03:42:41.975Z,59.80
2023-03-22T03:45:10.626Z,62.93
2023-03-22T03:47:39.056Z,60.43
2023-03-22T03:50:07.673Z,58.20
2023-03-22T03:52:34.974Z,62.17
2023-03-22T03:55:02.546Z,62.33
2023-03-22T03:57:33.481Z,67.90
2023-03-22T04:00:01.318Z,63.57
2023-03-22T04:02:47.215Z,66.97
2023-03-22T04:05:34.998Z,65.43
2023-03-22T04:08:02.323Z,67.60
2023-03-22T04:10:30.392Z,68.23
2023-03-22T04:12:57.826Z,70.57
2023-03-22T04:15:26.086Z,69.33
2023-03-22T04:17:57.333Z,72.93
2023-03-22T04:20:28.108Z,70.43
2023-03-22T04:22:55.768Z,71.40
2023-03-22T04:25:23.380Z,70.20
2023-03-22T04:28:00.664Z,71.10
2023-03-22T04:30:30.907Z,74.43
2023-03-22T04:33:01.424Z,71.90
2023-03-22T04:35:57.404Z,79.50
2023-03-22T04:38:31.338Z,73.77
2023-03-22T04:40:58.961Z,73.93
2023-03-22T04:43:39.614Z,78.23
2023-03-22T04:46:12.881Z,78.20
2023-03-22T04:48:48.205Z,75.10
2023-03-22T04:51:17.644Z,73.93
2023-03-22T04:54:11.364Z,74.77
2023-03-22T04:56:42.176Z,80.00
2023-03-22T04:59:10.990Z,77.03
2023-03-22T05:01:40.766Z,79.67
2023-03-22T05:04:13.077Z,80.23
2023-03-22T05:06:41.544Z,79.67
2023-03-22T05:09:16.547Z,78.00
2023-03-22T05:11:44.552Z,81.60
2023-03-22T05:14:24.792Z,80.00
2023-03-22T05:16:52.865Z,80.83
2023-03-22T05:19:22.531Z,77.37
2023-03-22T05:21:58.229Z,80.97
2023-03-22T05:24:37.143Z,83.90
2023-03-22T05:27:05.926Z,83.90
2023-03-22T05:29:37.072Z,82.00
2023-03-22T05:32:18.421Z,79.17
2023-03-22T05:34:48.522Z,86.40
2023-03-22T05:37:24.552Z,80.67
2023-03-22T05:39:55.315Z,79.20
2023-03-22T05:42:28.868Z,82.47
2023-03-22T05:44:57.294Z,80.37
2023-03-22T05:47:24.969Z,79.83
2023-03-22T05:49:58.907Z,75.70
2023-03-22T05:52:28.441Z,77.87
2023-03-22T05:55:22.395Z,74.10
2023-03-22T05:57:54.873Z,77.60
2023-03-22T06:00:23.931Z,75.37
2023-03-22T06:03:18.465Z,78.50
2023-03-22T06:05:54.856Z,76.63
2023-03-22T06:08:31.788Z,78.03
2023-03-22T06:11:00.459Z,75.97
2023-03-22T06:13:28.217Z,75.63
2023-03-22T06:15:56.115Z,75.47
2023-03-22T06:18:26.467Z,75.23
2023-03-22T06:21:02.271Z,74.80
2023-03-22T06:23:30.101Z,70.60
2023-03-22T06:25:57.515Z,70.00
2023-03-22T06:28:29.849Z,71.17
2023-03-22T06:30:58.560Z,69.97
2023-03-22T06:33:45.536Z,68.43
2023-03-22T06:36:27.371Z,66.93
2023-03-22T06:39:05.302Z,71.77
2023-03-22T06:41:33.492Z,69.33
2023-03-22T06:44:02.983Z,69.53
2023-03-22T06:46:44.569Z,70.03
2023-03-22T06:49:29.481Z,70.40
2023-03-22T06:51:58.508Z,69.33
2023-03-22T06:54:26.241Z,66.73
2023-03-22T06:56:53.920Z,66.87
2023-03-22T06:59:22.013Z,63.70
2023-03-22T07:01:49.672Z,62.87
2023-03-22T07:04:17.499Z,62.70
2023-03-22T07:06:47.588Z,64.03
2023-03-22T07:09:15.484Z,64.50
2023-03-22T07:11:42.951Z,58.90
2023-03-22T07:14:10.831Z,63.07
2023-03-22T07:17:16.645Z,60.90
2023-03-22T07:19:45.154Z,61.17
2023-03-22T07:22:13.695Z,63.03
2023-03-22T07:24:55.618Z,62.40
2023-03-22T07:27:24.695Z,61.77
2023-03-22T07:29:52.766Z,63.23
2023-03-22T07:32:20.721Z,59.27
2023-03-22T07:35:02.186Z,62.63
2023-03-22T07:37:29.512Z,58.20
2023-03-22T07:39:57.128Z,55.77
2023-03-22T07:42:28.082Z,53.80
2023-03-22T07:45:14.518Z,55.00
2023-03-22T07:47:45.367Z,52.70
2023-03-22T07:50:19.539Z,54.27
2023-03-22T07:52:51.537Z,50.13
2023-03-22T07:55:19.588Z,50.80
2023-03-22T07:57:47.254Z,47.73
2023-03-22T08:00:16.171Z,46.57
2023-03-22T08:02:46.498Z,45.00
2023-03-22T08:05:30.520Z,48.57
2023-03-22T08:08:02.230Z,44.43
2023-03-22T08:10:31.790Z,41.37
2023-03-22T08:12:59.470Z,42.20
2023-03-22T08:15:28.270Z,40.83
2023-03-22T08:17:58.180Z,41.53
2023-03-22T08:20:34.517Z,39.47
2023-03-22T08:23:11.450Z,39.17
2023-03-22T08:25:57.400Z,39.50
2023-03-22T08:28:24.799Z,42.03
2023-03-22T08:30:52.547Z,46.47
2023-03-22T08:33:23.850Z,40.30
2023-03-22T08:35:52.896Z,42.43
2023-03-22T08:38:21.165Z,42.20
2023-03-22T08:40:53.606Z,44.03
2023-03-22T08:43:24.388Z,42.80
2023-03-22T08:45:53.068Z,42.33
2023-03-22T08:48:21.887Z,45.37
2023-03-22T08:51:08.162Z,43.53
2023-03-22T08:53:58.901Z,43.50
2023-03-22T08:56:45.581Z,40.97
2023-03-22T08:59:42.147Z,40.33
2023-03-22T09:02:30.310Z,41.13
2023-03-22T09:04:58.895Z,41.23
2023-03-22T09:07:28.351Z,40.67
2023-03-22T09:10:05.194Z,39.30
2023-03-22T09:12:35.392Z,35.93
2023-03-22T09:15:03.318Z,36.53
2023-03-22T09:17:32.042Z,36.73
2023-03-22T09:20:11.413Z,37.67
2023-03-22T09:22:42.727Z,36.73
2023-03-22T09:25:13.006Z,37.40
2023-03-22T09:27:43.724Z,36.20
2023-03-22T09:30:11.936Z,33.10
2023-03-22T09:32:40.569Z,34.63
2023-03-22T09:35:09.040Z,34.73
2023-03-22T09:37:53.410Z,33.80
2023-03-22T09:40:25.328Z,31.97
2023-03-22T09:42:57.714Z,31.03
2023-03-22T09:45:41.948Z,32.63
2023-03-22T09:48:36.587Z,32.00
2023-03-22T09:51:06.138Z,28.67
2023-03-22T09:53:34.246Z,27.83
2023-03-22T09:56:04.690Z,28.90
2023-03-22T09:58:43.168Z,27.80
2023-03-22T10:01:10.830Z,27.47
2023-03-22T10:03:47.648Z,28.33
2023-03-22T10:06:19.148Z,30.20
2023-03-22T10:08:46.718Z,26.33
2023-03-22T10:11:51.536Z,26.47
2023-03-22T10:14:34.369Z,25.07
2023-03-22T10:17:07.160Z,25.70
2023-03-22T10:19:49.930Z,25.40
2023-03-22T10:22:19.616Z,25.37
2023-03-22T10:24:51.092Z,24.57
2023-03-22T10:27:20.697Z,25.90
2023-03-22T10:30:22.978Z,22.17
2023-03-22T10:33:04.079Z,22.17
2023-03-22T10:35:32.354Z,24.13
2023-03-22T10:38:03.917Z,23.17
2023-03-22T10:40:36.490Z,22.50
2023-03-22T10:43:10.241Z,24.77
2023-03-22T10:45:38.531Z,23.40
2023-03-22T10:48:14.984Z,24.07
2023-03-22T10:50:45.738Z,21.40
2023-03-22T10:53:21.297Z,23.05
2023-03-22T10:55:48.935Z,22.48
2023-03-22T10:58:19.376Z,18.85
2023-03-22T11:01:14.778Z,18.85
2023-03-22T11:03:44.761Z,19.25
2023-03-22T11:06:15.193Z,18.90
2023-03-22T11:08:45.834Z,17.98
2023-03-22T11:11:38.940Z,19.83
2023-03-22T11:14:39.691Z,18.13
2023-03-22T11:17:07.142Z,18.98
2023-03-22T11:19:37.357Z,18.45
2023-03-22T11:22:27.069Z,18.13
2023-03-22T11:24:57.476Z,17.42
2023-03-22T11:27:33.626Z,18.15
2023-03-22T11:30:23.351Z,17.77
2023-03-22T11:33:17.076Z,18.60
2023-03-22T11:35:47.214Z,18.45
2023-03-22T11:38:37.049Z,18.98
2023-03-22T11:41:25.145Z,19.02
2023-03-22T11:44:01.869Z,17.63
2023-03-22T11:46:30.498Z,18.30
2023-03-22T11:49:06.017Z,17.05
2023-03-22T11:51:39.302Z,17.15
2023-03-22T11:54:30.817Z,18.20
2023-03-22T11:57:01.538Z,17.48
2023-03-22T11:59:38.195Z,17.67
2023-03-22T12:02:27.049Z,16.88
2023-03-22T12:05:20.888Z,15.63
2023-03-22T12:07:54.068Z,15.82
2023-03-22T12:10:26.716Z,15.60
2023-03-22T12:12:59.800Z,15.90
2023-03-22T12:15:31.993Z,16.73
2023-03-22T12:18:08.508Z,15.57
2023-03-22T12:20:48.475Z,16.35
2023-03-22T12:23:19.363Z,16.20
2023-03-22T12:25:58.630Z,15.70
2023-03-22T12:28:41.140Z,15.55
2023-03-22T12:31:19.713Z,15.38
2023-03-22T12:34:00.160Z,15.27
2023-03-22T12:36:35.775Z,16.23
2023-03-22T12:39:06.583Z,17.25
2023-03-22T12:41:36.040Z,17.08
2023-03-22T12:44:32.507Z,17.75
2023-03-22T12:47:13.086Z,15.25
2023-03-22T12:49:58.778Z,16.80
2023-03-22T12:52:45.686Z,16.30
2023-03-22T12:55:36.814Z,14.73
2023-03-22T12:58:09.551Z,15.65
2023-03-22T13:00:41.070Z,16.27
2023-03-22T13:03:21.051Z,14.25
2023-03-22T13:05:50.342Z,14.25
2023-03-22T13:08:22.615Z,13.98
2023-03-22T13:11:03.936Z,14.43
2023-03-22T13:13:42.519Z,14.70
2023-03-22T13:16:09.870Z,14.68
2023-03-22T13:18:40.721Z,13.18
2023-03-22T13:21:14.599Z,14.10
2023-03-22T13:24:02.601Z,13.45
2023-03-22T13:26:59.159Z,14.75
2023-03-22T13:29:38.293Z,14.57
2023-03-22T13:32:13.794Z,14.13
2023-03-22T13:34:48.330Z,15.18
2023-03-22T13:37:31.294Z,14.73
2023-03-22T13:40:02.300Z,14.00
2023-03-22T13:42:41.298Z,15.07
2023-03-22T13:45:31.546Z,14.38
2023-03-22T13:48:04.915Z,14.30
2023-03-22T13:50:34.557Z,14.50
2023-03-22T13:53:14.865Z,13.93
2023-03-22T13:55:51.989Z,13.13
2023-03-22T13:58:38.872Z,13.07
2023-03-22T14:01:23.060Z,12.95
2023-03-22T14:03:51.365Z,14.23
2023-03-22T14:06:32.006Z,13.10
2023-03-22T14:09:06.251Z,14.60
2023-03-22T14:11:45.466Z,13.50
2023-03-22T14:14:36.676Z,14.23
2023-03-22T14:17:17.128Z,14.07
2023-03-22T14:19:45.002Z,12.48
